createdAt,value
2018-05-29T10:48:57.823Z,12.60
2018-05-29T10:51:26.270Z,12.43
2018-05-29T10:53:54.802Z,14.30
2018-05-29T10:56:26.410Z,12.90
2018-05-29T10:58:54.903Z,11.40
2018-05-29T11:01:23.519Z,11.13
2018-05-29T11:03:54.975Z,10.83
2018-05-29T11:06:29.827Z,11.33
2018-05-29T11:08:59.392Z,12.30
2018-05-29T11:11:29.294Z,12.80
2018-05-29T11:13:59.760Z,13.70
2018-05-29T11:16:28.167Z,11.80
2018-05-29T11:18:58.221Z,13.73
2018-05-29T11:21:26.896Z,14.03
2018-05-29T11:23:55.743Z,14.47
2018-05-29T11:26:24.413Z,12.60
2018-05-29T11:28:55.030Z,13.73
2018-05-29T11:31:23.606Z,13.67
2018-05-29T11:33:53.238Z,14.63
2018-05-29T11:36:22.079Z,15.70
2018-05-29T11:38:50.726Z,15.07
2018-05-29T11:41:19.189Z,14.67
2018-05-29T11:43:47.728Z,14.57
2018-05-29T11:46:16.174Z,15.80
2018-05-29T11:48:44.575Z,16.10
2018-05-29T11:51:13.161Z,15.07
2018-05-29T11:53:42.775Z,15.13
2018-05-29T11:56:11.250Z,14.40
2018-05-29T11:58:39.747Z,14.30
2018-05-29T12:01:08.268Z,15.57
2018-05-29T12:03:36.780Z,15.10
2018-05-29T12:06:05.205Z,14.73
2018-05-29T12:08:33.632Z,16.03
2018-05-29T12:11:02.365Z,15.90
2018-05-29T12:13:30.899Z,16.17
2018-05-29T12:16:00.383Z,15.40
2018-05-29T12:18:28.871Z,14.77
2018-05-29T12:20:59.544Z,14.37
2018-05-29T12:23:27.983Z,13.90
2018-05-29T12:25:56.412Z,14.10
2018-05-29T12:28:24.857Z,14.40
2018-05-29T12:30:53.349Z,14.23
2018-05-29T12:33:21.762Z,15.50
2018-05-29T12:35:51.347Z,14.43
2018-05-29T12:38:19.838Z,14.77
2018-05-29T12:40:48.214Z,15.00
2018-05-29T12:43:16.601Z,14.53
2018-05-29T12:45:45.024Z,13.00
2018-05-29T12:48:13.557Z,14.53
2018-05-29T12:50:41.981Z,14.63
2018-05-29T12:53:12.133Z,16.00
2018-05-29T12:55:40.674Z,14.63
2018-05-29T12:58:09.068Z,16.23
2018-05-29T13:00:37.518Z,15.13
2018-05-29T13:03:06.081Z,15.30
2018-05-29T13:05:34.535Z,14.90
2018-05-29T13:08:04.000Z,14.37
2018-05-29T13:10:32.454Z,15.50
2018-05-29T13:13:03.152Z,15.23
2018-05-29T13:15:31.653Z,14.73
2018-05-29T13:18:03.546Z,15.70
2018-05-29T13:20:31.988Z,14.90
2018-05-29T13:23:01.076Z,15.07
2018-05-29T13:25:29.558Z,14.20
2018-05-29T13:27:59.006Z,14.67
2018-05-29T13:30:29.844Z,14.23
2018-05-29T13:32:58.311Z,13.73
2018-05-29T13:35:26.918Z,13.13
2018-05-29T13:37:55.368Z,14.30
2018-05-29T13:40:23.998Z,14.83
2018-05-29T13:42:53.316Z,14.67
2018-05-29T13:45:21.788Z,15.60
2018-05-29T13:47:50.317Z,14.70
2018-05-29T13:50:18.752Z,15.73
2018-05-29T13:52:47.349Z,14.73
2018-05-29T13:55:16.176Z,14.20
2018-05-29T13:57:45.233Z,15.20
2018-05-29T14:00:13.736Z,15.50
2018-05-29T14:02:42.190Z,14.70
2018-05-29T14:05:11.793Z,13.90
2018-05-29T14:07:47.070Z,15.50
2018-05-29T14:28:59.900Z,14.50
2018-05-29T14:32:17.727Z,12.00
2018-05-29T14:44:17.896Z,12.70
2018-05-29T14:46:55.777Z,13.07
2018-05-29T14:49:32.001Z,13.20
2018-05-29T14:52:01.823Z,13.30
2018-05-29T14:54:31.457Z,10.33
2018-05-29T14:57:03.404Z,8.87
2018-05-29T14:59:32.759Z,8.07
2018-05-29T15:02:02.025Z,8.30
2018-05-29T15:04:31.165Z,7.77
2018-05-29T15:07:00.001Z,8.00
2018-05-29T15:09:31.671Z,7.67
2018-05-29T15:12:02.805Z,8.43
2018-05-29T15:14:36.117Z,9.00
2018-05-29T15:17:05.717Z,10.63
2018-05-29T15:19:35.695Z,10.00
2018-05-29T15:22:07.165Z,8.70
2018-05-29T15:24:36.175Z,10.23
2018-05-29T15:27:07.567Z,10.20
2018-05-29T15:29:44.848Z,8.60
2018-05-29T15:32:15.538Z,8.30
2018-05-29T15:34:45.529Z,7.10
2018-05-29T15:37:14.727Z,10.27
2018-05-29T15:39:44.048Z,7.77
2018-05-29T15:42:12.584Z,6.90
2018-05-29T15:44:42.258Z,7.83
2018-05-29T15:47:17.790Z,8.77
2018-05-29T15:49:52.958Z,9.03
2018-05-29T15:52:25.481Z,8.23
2018-05-29T15:54:55.228Z,7.73
2018-05-29T15:57:29.420Z,6.90
2018-05-29T16:00:00.010Z,7.63
2018-05-29T16:02:28.993Z,8.27
2018-05-29T16:05:02.003Z,7.50
2018-05-29T16:07:50.022Z,6.80
2018-05-29T16:10:26.366Z,8.20
2018-05-29T16:12:59.495Z,8.67
2018-05-29T16:15:36.954Z,9.00
2018-05-29T16:18:05.730Z,9.40
2018-05-29T16:20:35.506Z,9.30
2018-05-29T16:23:04.392Z,10.80
2018-05-29T16:25:32.882Z,10.10
2018-05-29T16:28:02.107Z,10.60
2018-05-29T16:30:30.880Z,8.77
2018-05-29T16:32:59.322Z,9.20
2018-05-29T16:35:27.912Z,9.30
2018-05-29T16:37:56.510Z,10.20
2018-05-29T16:40:30.896Z,10.77
2018-05-29T16:45:44.980Z,9.70
2018-05-29T16:48:28.757Z,10.67
2018-05-29T16:50:57.389Z,11.00
2018-05-29T16:53:26.003Z,11.53
2018-05-29T16:55:54.562Z,10.73
2018-05-29T16:58:23.109Z,11.80
2018-05-29T17:00:52.301Z,11.30
2018-05-29T17:03:20.777Z,10.90
2018-05-29T17:05:49.197Z,10.10
2018-05-29T17:08:17.864Z,11.17
2018-05-29T17:10:46.482Z,10.60
2018-05-29T17:13:15.031Z,11.17
2018-05-29T17:15:43.708Z,10.63
2018-05-29T17:18:13.171Z,11.60
2018-05-29T17:20:41.646Z,9.57
2018-05-29T17:23:10.090Z,10.50
2018-05-29T17:25:38.562Z,11.23
2018-05-29T17:28:07.545Z,11.13
2018-05-29T17:30:36.221Z,11.90
2018-05-29T17:33:04.702Z,11.37
2018-05-29T17:35:33.227Z,10.80
2018-05-29T17:38:02.095Z,13.10
2018-05-29T17:40:30.985Z,11.87
2018-05-29T17:43:00.413Z,12.60
2018-05-29T17:45:28.805Z,12.73
2018-05-29T17:47:57.220Z,13.87
2018-05-29T17:50:27.563Z,13.40
2018-05-29T17:52:56.437Z,11.83
2018-05-29T17:55:27.474Z,11.57
2018-05-29T17:58:19.462Z,12.63
2018-05-29T18:01:10.771Z,12.93
2018-05-29T18:03:44.849Z,12.13
2018-05-29T18:06:22.574Z,13.03
2018-05-29T18:12:13.473Z,12.90
2018-05-29T18:15:08.563Z,12.40
2018-05-29T18:23:46.243Z,14.50
2018-05-29T18:26:18.309Z,13.70
2018-05-29T18:28:47.746Z,14.43
2018-05-29T18:31:16.329Z,13.57
2018-05-29T18:33:44.785Z,14.97
2018-05-29T18:38:55.938Z,16.20
2018-05-29T18:41:24.443Z,16.40
2018-05-29T18:43:52.855Z,14.03
2018-05-29T18:46:23.955Z,13.30
2018-05-29T18:48:53.511Z,14.27
2018-05-29T18:51:21.914Z,14.77
2018-05-29T18:53:50.391Z,14.90
2018-05-29T18:56:18.820Z,13.43
2018-05-29T18:58:48.237Z,12.73
2018-05-29T19:01:16.885Z,14.17
2018-05-29T19:03:45.332Z,12.00
2018-05-29T19:06:13.830Z,8.83
2018-05-29T19:08:42.545Z,8.03
2018-05-29T19:11:11.108Z,7.03
2018-05-29T19:13:39.594Z,6.97
2018-05-29T19:16:08.396Z,6.90
2018-05-29T19:18:36.819Z,7.07
2018-05-29T19:21:05.280Z,7.53
2018-05-29T19:23:33.724Z,8.20
2018-05-29T19:29:13.601Z,7.80
2018-05-29T19:31:48.457Z,7.97
2018-05-29T19:34:19.885Z,7.10
2018-05-29T19:36:48.648Z,6.70
2018-05-29T19:39:19.271Z,5.80
2018-05-29T19:41:51.562Z,7.00
2018-05-29T19:44:26.419Z,6.87
2018-05-29T19:46:57.126Z,7.90
2018-05-29T19:49:29.334Z,7.50
2018-05-29T19:51:58.140Z,8.97
2018-05-29T19:54:35.207Z,9.33
2018-05-29T19:57:03.765Z,9.53
2018-05-29T19:59:34.343Z,6.43
2018-05-29T20:02:19.799Z,7.97
2018-05-29T20:05:00.649Z,8.33
2018-05-29T20:07:30.524Z,8.20
2018-05-29T20:10:01.504Z,8.17
2018-05-29T20:12:42.314Z,8.13
2018-05-29T20:15:19.678Z,8.50
2018-05-29T20:17:51.057Z,6.47
2018-05-29T20:20:20.773Z,7.30
2018-05-29T20:22:49.398Z,8.00
2018-05-29T20:25:26.266Z,7.30
2018-05-29T20:27:54.829Z,8.60
2018-05-29T20:30:32.205Z,6.93
2018-05-29T20:33:06.809Z,7.67
2018-05-29T20:35:35.359Z,9.03
2018-05-29T20:38:04.770Z,9.10
2018-05-29T20:40:33.436Z,8.30
2018-05-29T20:43:03.616Z,7.90
2018-05-29T20:45:34.642Z,8.37
2018-05-29T20:48:08.586Z,6.23
2018-05-29T20:50:37.114Z,6.27
2018-05-29T20:53:06.130Z,6.17
2018-05-29T20:55:36.851Z,5.47
2018-05-29T20:58:05.226Z,6.33
2018-05-29T21:00:33.667Z,5.97
2018-05-29T21:03:02.118Z,6.43
2018-05-29T21:05:30.488Z,5.27
2018-05-29T21:07:58.988Z,5.70
2018-05-29T21:10:27.401Z,5.07
2018-05-29T21:12:55.906Z,4.53
2018-05-29T21:15:24.426Z,4.90
2018-05-29T21:17:52.855Z,5.50
2018-05-29T21:20:21.335Z,5.07
2018-05-29T21:22:49.753Z,4.80
2018-05-29T21:25:18.709Z,3.60
2018-05-29T21:27:47.232Z,3.93
2018-05-29T21:30:19.521Z,3.70
2018-05-29T21:32:51.017Z,4.53
2018-05-29T21:35:21.494Z,4.30
2018-05-29T21:37:51.762Z,4.60
2018-05-29T21:40:20.584Z,4.20
2018-05-29T21:42:58.105Z,3.90
2018-05-29T21:45:26.675Z,4.23
2018-05-29T21:47:55.251Z,3.77
2018-05-29T21:53:04.416Z,3.77
2018-05-29T21:55:32.903Z,4.13
2018-05-29T21:58:02.301Z,4.20
2018-05-29T22:00:31.880Z,4.07
2018-05-29T22:03:00.374Z,4.53
2018-05-29T22:05:28.760Z,4.30
2018-05-29T22:07:57.177Z,4.80
2018-05-29T22:10:25.600Z,3.70
2018-05-29T22:12:54.255Z,4.40
2018-05-29T22:15:22.657Z,4.10
2018-05-29T22:17:51.125Z,4.03
2018-05-29T22:20:19.510Z,4.57
2018-05-29T22:22:49.007Z,4.07
2018-05-29T22:25:17.365Z,4.40
2018-05-29T22:27:47.881Z,4.10
2018-05-29T22:30:16.287Z,5.20
2018-05-29T22:32:44.674Z,4.33
2018-05-29T22:35:13.017Z,4.70
2018-05-29T22:37:41.434Z,4.60
2018-05-29T22:40:09.778Z,5.47
2018-05-29T22:42:38.256Z,5.07
2018-05-29T22:45:06.701Z,4.93
2018-05-29T22:47:35.052Z,4.73
2018-05-29T22:50:03.435Z,4.67
2018-05-29T22:52:31.781Z,5.00
2018-05-29T22:55:00.142Z,5.37
2018-05-29T22:57:28.545Z,5.10
2018-05-29T22:59:56.884Z,5.20
2018-05-29T23:02:25.355Z,5.70
2018-05-29T23:04:53.708Z,5.40
2018-05-29T23:07:22.088Z,6.03
2018-05-29T23:09:50.452Z,4.97
2018-05-29T23:12:18.804Z,5.40
2018-05-29T23:14:47.202Z,5.13
2018-05-29T23:17:15.571Z,5.90
2018-05-29T23:19:43.976Z,5.43
2018-05-29T23:22:12.308Z,5.97
2018-05-29T23:24:40.771Z,5.67
2018-05-29T23:27:09.134Z,5.73
2018-05-29T23:29:38.441Z,5.87
2018-05-29T23:32:06.821Z,5.40
2018-05-29T23:34:36.372Z,5.80
2018-05-29T23:37:04.922Z,6.60
2018-05-29T23:39:33.294Z,6.47
2018-05-29T23:42:01.701Z,6.30
2018-05-29T23:44:30.047Z,6.07
2018-05-29T23:46:58.398Z,6.30
2018-05-29T23:49:26.773Z,6.40
2018-05-29T23:51:56.021Z,6.17
2018-05-29T23:54:24.506Z,6.53
2018-05-29T23:56:52.900Z,6.80
2018-05-29T23:59:21.292Z,6.37
